Carpenter, Wyoming
Current Conditions -  °F | °C
As of 3:55 PM on Thursday 23 Oct 2014 (Local Time) from K82V Reporting Station
Clear Clear  
Wind Chill: 66°   Ceiling: Unl
Heat Index: 66°   Visibility: 10mi
Dew Point: 32°   Wind: 10mph
Humidity: 28%   Direction: 220°SW
Pressure: 30.08"   Gusts: NA
Location:  41.05°N, 104.37°W
Report Text: K82V 232155Z AUTO 22009KT 10SM CLR 19/00 A3008 RMK AO2
Loading
Personal Weather Stations






























Interactive Weather Map
Tropical Storm Tracking
New forecast layout! Learn more

10-Day Weather Forecast

Advertisements
Track Severe Weather on mobile